sensor_id;sensor_type;location;lat;lon;timestamp;P1;durP1;ratioP1;P2;durP2;ratioP2
17773;SDS011;9011;33.236;-97.118;2023-02-15T00:00:06;4.05;;;0.60;;
17773;SDS011;9011;33.236;-97.118;2023-02-15T00:02:36;2.55;;;0.32;;
17773;SDS011;9011;33.236;-97.118;2023-02-15T00:05:05;9.45;;;0.90;;
17773;SDS011;9011;33.236;-97.118;2023-02-15T00:07:35;4.75;;;0.95;;
17773;SDS011;9011;33.236;-97.118;2023-02-15T00:10:04;4.93;;;0.60;;
17773;SDS011;9011;33.236;-97.118;2023-02-15T00:12:34;2.13;;;0.60;;
17773;SDS011;9011;33.236;-97.118;2023-02-15T00:15:02;1.60;;;0.50;;
17773;SDS011;9011;33.236;-97.118;2023-02-15T00:17:31;2.25;;;0.50;;
17773;SDS011;9011;33.236;-97.118;2023-02-15T00:19:59;1.67;;;0.55;;
17773;SDS011;9011;33.236;-97.118;2023-02-15T00:22:27;4.57;;;0.70;;
17773;SDS011;9011;33.236;-97.118;2023-02-15T00:24:57;2.72;;;0.50;;
17773;SDS011;9011;33.236;-97.118;2023-02-15T00:27:26;3.05;;;0.60;;
17773;SDS011;9011;33.236;-97.118;2023-02-15T00:29:54;3.30;;;0.50;;
17773;SDS011;9011;33.236;-97.118;2023-02-15T00:32:22;5.28;;;0.70;;
17773;SDS011;9011;33.236;-97.118;2023-02-15T00:34:50;3.05;;;0.80;;
17773;SDS011;9011;33.236;-97.118;2023-02-15T00:37:19;3.95;;;0.95;;
17773;SDS011;9011;33.236;-97.118;2023-02-15T00:39:47;6.05;;;0.80;;
17773;SDS011;9011;33.236;-97.118;2023-02-15T00:42:17;3.45;;;0.70;;
17773;SDS011;9011;33.236;-97.118;2023-02-15T00:44:45;1.27;;;0.52;;
17773;SDS011;9011;33.236;-97.118;2023-02-15T00:47:14;2.25;;;0.73;;
17773;SDS011;9011;33.236;-97.118;2023-02-15T00:49:42;0.82;;;0.60;;
17773;SDS011;9011;33.236;-97.118;2023-02-15T00:52:10;5.55;;;0.70;;
17773;SDS011;9011;33.236;-97.118;2023-02-15T00:54:39;2.33;;;0.38;;
17773;SDS011;9011;33.236;-97.118;2023-02-15T00:57:07;2.30;;;0.57;;
17773;SDS011;9011;33.236;-97.118;2023-02-15T00:59:37;0.90;;;0.30;;
17773;SDS011;9011;33.236;-97.118;2023-02-15T01:02:05;2.80;;;0.63;;
17773;SDS011;9011;33.236;-97.118;2023-02-15T01:04:34;1.08;;;0.40;;
17773;SDS011;9011;33.236;-97.118;2023-02-15T01:07:02;3.58;;;0.85;;
17773;SDS011;9011;33.236;-97.118;2023-02-15T01:09:30;1.02;;;0.70;;
17773;SDS011;9011;33.236;-97.118;2023-02-15T01:11:58;5.15;;;0.95;;
17773;SDS011;9011;33.236;-97.118;2023-02-15T01:14:27;4.97;;;1.05;;
17773;SDS011;9011;33.236;-97.118;2023-02-15T01:16:57;1.92;;;0.65;;
17773;SDS011;9011;33.236;-97.118;2023-02-15T01:19:25;4.13;;;0.90;;
17773;SDS011;9011;33.236;-97.118;2023-02-15T01:21:53;2.50;;;0.60;;
17773;SDS011;9011;33.236;-97.118;2023-02-15T01:24:22;8.80;;;0.80;;
17773;SDS011;9011;33.236;-97.118;2023-02-15T01:26:50;3.08;;;0.57;;
17773;SDS011;9011;33.236;-97.118;2023-02-15T01:29:19;6.13;;;0.88;;
17773;SDS011;9011;33.236;-97.118;2023-02-15T01:31:47;4.53;;;0.73;;
17773;SDS011;9011;33.236;-97.118;2023-02-15T01:34:17;4.32;;;0.60;;
17773;SDS011;9011;33.236;-97.118;2023-02-15T01:36:45;3.85;;;0.80;;
17773;SDS011;9011;33.236;-97.118;2023-02-15T01:39:14;4.15;;;0.60;;
17773;SDS011;9011;33.236;-97.118;2023-02-15T01:41:42;2.15;;;0.75;;
17773;SDS011;9011;33.236;-97.118;2023-02-15T01:47:16;3.38;;;0.82;;
17773;SDS011;9011;33.236;-97.118;2023-02-15T01:49:52;2.97;;;0.73;;
17773;SDS011;9011;33.236;-97.118;2023-02-15T01:52:27;2.30;;;0.80;;
17773;SDS011;9011;33.236;-97.118;2023-02-15T01:54:56;3.03;;;0.70;;
17773;SDS011;9011;33.236;-97.118;2023-02-15T01:57:25;4.95;;;0.77;;
17773;SDS011;9011;33.236;-97.118;2023-02-15T01:59:55;3.42;;;0.90;;
17773;SDS011;9011;33.236;-97.118;2023-02-15T02:02:27;2.92;;;1.15;;
17773;SDS011;9011;33.236;-97.118;2023-02-15T02:04:59;6.13;;;1.10;;
17773;SDS011;9011;33.236;-97.118;2023-02-15T02:07:32;3.38;;;0.85;;
17773;SDS011;9011;33.236;-97.118;2023-02-15T02:10:05;3.67;;;1.00;;
17773;SDS011;9011;33.236;-97.118;2023-02-15T02:12:34;4.85;;;1.00;;
17773;SDS011;9011;33.236;-97.118;2023-02-15T02:15:04;2.78;;;0.90;;
17773;SDS011;9011;33.236;-97.118;2023-02-15T02:17:35;1.20;;;0.70;;
17773;SDS011;9011;33.236;-97.118;2023-02-15T02:26:16;2.72;;;0.90;;
17773;SDS011;9011;33.236;-97.118;2023-02-15T02:29:29;2.08;;;1.20;;
17773;SDS011;9011;33.236;-97.118;2023-02-15T02:35:45;0.70;;;0.50;;
17773;SDS011;9011;33.236;-97.118;2023-02-15T02:38:21;1.30;;;0.70;;
17773;SDS011;9011;33.236;-97.118;2023-02-15T02:40:57;1.67;;;1.15;;
17773;SDS011;9011;33.236;-97.118;2023-02-15T02:43:34;3.80;;;1.33;;
17773;SDS011;9011;33.236;-97.118;2023-02-15T02:46:06;4.25;;;1.13;;
17773;SDS011;9011;33.236;-97.118;2023-02-15T02:48:43;2.25;;;0.70;;
17773;SDS011;9011;33.236;-97.118;2023-02-15T02:51:12;1.80;;;1.10;;
17773;SDS011;9011;33.236;-97.118;2023-02-15T02:53:47;3.72;;;1.50;;
17773;SDS011;9011;33.236;-97.118;2023-02-15T02:56:20;4.47;;;1.40;;
17773;SDS011;9011;33.236;-97.118;2023-02-15T02:58:53;2.50;;;0.90;;
17773;SDS011;9011;33.236;-97.118;2023-02-15T03:01:28;1.60;;;1.00;;
17773;SDS011;9011;33.236;-97.118;2023-02-15T03:04:02;2.05;;;0.85;;
17773;SDS011;9011;33.236;-97.118;2023-02-15T03:06:36;2.47;;;0.93;;
17773;SDS011;9011;33.236;-97.118;2023-02-15T03:09:09;3.17;;;1.02;;
17773;SDS011;9011;33.236;-97.118;2023-02-15T03:11:47;2.85;;;1.33;;
17773;SDS011;9011;33.236;-97.118;2023-02-15T03:14:16;2.03;;;1.10;;
17773;SDS011;9011;33.236;-97.118;2023-02-15T03:16:47;4.18;;;1.50;;
17773;SDS011;9011;33.236;-97.118;2023-02-15T03:19:20;2.13;;;1.58;;
17773;SDS011;9011;33.236;-97.118;2023-02-15T03:21:51;2.97;;;1.00;;
17773;SDS011;9011;33.236;-97.118;2023-02-15T03:24:30;3.05;;;1.05;;
17773;SDS011;9011;33.236;-97.118;2023-02-15T03:27:03;1.95;;;0.80;;
17773;SDS011;9011;33.236;-97.118;2023-02-15T03:29:34;2.47;;;0.90;;
17773;SDS011;9011;33.236;-97.118;2023-02-15T03:32:04;2.97;;;1.00;;
17773;SDS011;9011;33.236;-97.118;2023-02-15T03:34:37;2.80;;;0.93;;
17773;SDS011;9011;33.236;-97.118;2023-02-15T03:37:07;3.90;;;1.00;;
17773;SDS011;9011;33.236;-97.118;2023-02-15T03:39:42;3.20;;;0.98;;
17773;SDS011;9011;33.236;-97.118;2023-02-15T03:42:16;2.75;;;1.00;;
17773;SDS011;9011;33.236;-97.118;2023-02-15T03:44:51;3.92;;;0.98;;
17773;SDS011;9011;33.236;-97.118;2023-02-15T03:47:28;1.48;;;0.70;;
17773;SDS011;9011;33.236;-97.118;2023-02-15T03:50:02;2.92;;;0.90;;
17773;SDS011;9011;33.236;-97.118;2023-02-15T03:52:55;3.47;;;1.20;;
17773;SDS011;9011;33.236;-97.118;2023-02-15T03:55:25;2.05;;;0.98;;
17773;SDS011;9011;33.236;-97.118;2023-02-15T03:57:55;3.63;;;1.08;;
17773;SDS011;9011;33.236;-97.118;2023-02-15T04:00:40;1.90;;;1.00;;
17773;SDS011;9011;33.236;-97.118;2023-02-15T04:03:32;1.33;;;0.77;;
17773;SDS011;9011;33.236;-97.118;2023-02-15T04:06:07;8.18;;;1.08;;
17773;SDS011;9011;33.236;-97.118;2023-02-15T04:08:36;3.03;;;0.80;;
17773;SDS011;9011;33.236;-97.118;2023-02-15T04:11:21;3.03;;;0.75;;
17773;SDS011;9011;33.236;-97.118;2023-02-15T04:13:50;4.88;;;0.95;;
17773;SDS011;9011;33.236;-97.118;2023-02-15T04:16:23;2.22;;;0.80;;
17773;SDS011;9011;33.236;-97.118;2023-02-15T04:18:51;1.80;;;0.70;;
17773;SDS011;9011;33.236;-97.118;2023-02-15T04:21:37;3.38;;;0.80;;
17773;SDS011;9011;33.236;-97.118;2023-02-15T04:24:23;2.83;;;0.90;;
17773;SDS011;9011;33.236;-97.118;2023-02-15T04:27:08;3.70;;;0.80;;
17773;SDS011;9011;33.236;-97.118;2023-02-15T04:29:36;2.75;;;0.85;;
17773;SDS011;9011;33.236;-97.118;2023-02-15T04:32:05;2.65;;;0.95;;
17773;SDS011;9011;33.236;-97.118;2023-02-15T04:34:33;1.92;;;1.00;;
17773;SDS011;9011;33.236;-97.118;2023-02-15T04:37:03;1.75;;;0.90;;
17773;SDS011;9011;33.236;-97.118;2023-02-15T04:39:32;1.05;;;0.63;;
17773;SDS011;9011;33.236;-97.118;2023-02-15T04:42:00;2.53;;;0.95;;
17773;SDS011;9011;33.236;-97.118;2023-02-15T04:44:29;2.30;;;0.90;;
17773;SDS011;9011;33.236;-97.118;2023-02-15T04:46:57;1.02;;;0.70;;
17773;SDS011;9011;33.236;-97.118;2023-02-15T04:49:26;2.10;;;0.90;;
17773;SDS011;9011;33.236;-97.118;2023-02-15T04:51:54;1.63;;;0.80;;
17773;SDS011;9011;33.236;-97.118;2023-02-15T04:54:25;2.05;;;0.77;;
17773;SDS011;9011;33.236;-97.118;2023-02-15T04:56:53;1.65;;;0.90;;
17773;SDS011;9011;33.236;-97.118;2023-02-15T04:59:22;2.38;;;1.00;;
17773;SDS011;9011;33.236;-97.118;2023-02-15T05:01:51;1.98;;;0.85;;
17773;SDS011;9011;33.236;-97.118;2023-02-15T05:04:19;3.45;;;0.85;;
17773;SDS011;9011;33.236;-97.118;2023-02-15T05:06:48;0.85;;;0.63;;
17773;SDS011;9011;33.236;-97.118;2023-02-15T05:09:16;1.15;;;0.77;;
17773;SDS011;9011;33.236;-97.118;2023-02-15T05:11:46;3.20;;;0.70;;
17773;SDS011;9011;33.236;-97.118;2023-02-15T05:14:15;2.08;;;0.63;;
17773;SDS011;9011;33.236;-97.118;2023-02-15T05:16:43;2.85;;;0.88;;
17773;SDS011;9011;33.236;-97.118;2023-02-15T05:19:12;1.60;;;0.63;;
17773;SDS011;9011;33.236;-97.118;2023-02-15T05:21:40;2.85;;;1.00;;
17773;SDS011;9011;33.236;-97.118;2023-02-15T05:24:09;0.93;;;0.68;;
17773;SDS011;9011;33.236;-97.118;2023-02-15T05:26:52;1.13;;;0.80;;
17773;SDS011;9011;33.236;-97.118;2023-02-15T05:29:37;5.72;;;0.80;;
17773;SDS011;9011;33.236;-97.118;2023-02-15T05:32:06;2.25;;;0.60;;
17773;SDS011;9011;33.236;-97.118;2023-02-15T05:34:36;2.35;;;0.90;;
17773;SDS011;9011;33.236;-97.118;2023-02-15T05:37:04;5.95;;;1.00;;
17773;SDS011;9011;33.236;-97.118;2023-02-15T05:39:33;1.63;;;0.93;;
17773;SDS011;9011;33.236;-97.118;2023-02-15T05:42:03;1.73;;;1.10;;
17773;SDS011;9011;33.236;-97.118;2023-02-15T05:44:31;1.52;;;0.60;;
17773;SDS011;9011;33.236;-97.118;2023-02-15T05:47:00;0.95;;;0.60;;
17773;SDS011;9011;33.236;-97.118;2023-02-15T05:49:30;0.93;;;0.77;;
17773;SDS011;9011;33.236;-97.118;2023-02-15T05:51:58;3.88;;;0.70;;
17773;SDS011;9011;33.236;-97.118;2023-02-15T05:54:26;3.08;;;0.77;;
17773;SDS011;9011;33.236;-97.118;2023-02-15T05:56:55;1.83;;;0.75;;
17773;SDS011;9011;33.236;-97.118;2023-02-15T05:59:26;2.22;;;1.05;;
17773;SDS011;9011;33.236;-97.118;2023-02-15T06:01:54;1.85;;;0.70;;
17773;SDS011;9011;33.236;-97.118;2023-02-15T06:04:23;0.82;;;0.60;;
17773;SDS011;9011;33.236;-97.118;2023-02-15T06:06:51;2.75;;;0.70;;
17773;SDS011;9011;33.236;-97.118;2023-02-15T06:09:20;1.00;;;0.60;;
17773;SDS011;9011;33.236;-97.118;2023-02-15T06:11:49;1.30;;;0.90;;
17773;SDS011;9011;33.236;-97.118;2023-02-15T06:14:17;1.55;;;0.85;;
17773;SDS011;9011;33.236;-97.118;2023-02-15T06:16:48;2.60;;;0.60;;
17773;SDS011;9011;33.236;-97.118;2023-02-15T06:19:16;1.85;;;0.80;;
17773;SDS011;9011;33.236;-97.118;2023-02-15T06:21:45;2.30;;;0.90;;
17773;SDS011;9011;33.236;-97.118;2023-02-15T06:24:14;1.27;;;0.80;;
17773;SDS011;9011;33.236;-97.118;2023-02-15T06:26:42;1.27;;;0.70;;
17773;SDS011;9011;33.236;-97.118;2023-02-15T06:29:11;2.13;;;0.88;;
17773;SDS011;9011;33.236;-97.118;2023-02-15T06:31:39;2.42;;;0.70;;
17773;SDS011;9011;33.236;-97.118;2023-02-15T06:34:09;0.90;;;0.70;;
17773;SDS011;9011;33.236;-97.118;2023-02-15T06:36:38;0.77;;;0.52;;
17773;SDS011;9011;33.236;-97.118;2023-02-15T06:39:06;3.13;;;0.57;;
17773;SDS011;9011;33.236;-97.118;2023-02-15T06:41:35;2.13;;;0.50;;
17773;SDS011;9011;33.236;-97.118;2023-02-15T06:44:04;2.47;;;0.80;;
17773;SDS011;9011;33.236;-97.118;2023-02-15T06:46:32;2.05;;;0.70;;
17773;SDS011;9011;33.236;-97.118;2023-02-15T06:49:00;2.45;;;0.88;;
17773;SDS011;9011;33.236;-97.118;2023-02-15T06:51:30;0.60;;;0.40;;
17773;SDS011;9011;33.236;-97.118;2023-02-15T06:53:59;2.60;;;0.60;;
17773;SDS011;9011;33.236;-97.118;2023-02-15T06:56:28;1.63;;;0.50;;
17773;SDS011;9011;33.236;-97.118;2023-02-15T06:58:57;2.72;;;0.57;;
17773;SDS011;9011;33.236;-97.118;2023-02-15T07:01:25;2.33;;;0.47;;
17773;SDS011;9011;33.236;-97.118;2023-02-15T07:03:54;1.00;;;0.52;;
17773;SDS011;9011;33.236;-97.118;2023-02-15T07:06:22;0.85;;;0.60;;
17773;SDS011;9011;33.236;-97.118;2023-02-15T07:08:52;1.02;;;0.75;;
17773;SDS011;9011;33.236;-97.118;2023-02-15T07:11:21;1.85;;;0.60;;
17773;SDS011;9011;33.236;-97.118;2023-02-15T07:14:06;1.65;;;0.38;;
17773;SDS011;9011;33.236;-97.118;2023-02-15T07:16:34;1.00;;;0.52;;
17773;SDS011;9011;33.236;-97.118;2023-02-15T07:19:03;1.33;;;0.60;;
17773;SDS011;9011;33.236;-97.118;2023-02-15T07:21:32;1.70;;;0.55;;
17773;SDS011;9011;33.236;-97.118;2023-02-15T07:24:02;2.65;;;0.60;;
17773;SDS011;9011;33.236;-97.118;2023-02-15T07:26:31;1.20;;;0.50;;
17773;SDS011;9011;33.236;-97.118;2023-02-15T07:29:00;1.20;;;0.50;;
17773;SDS011;9011;33.236;-97.118;2023-02-15T07:31:28;0.82;;;0.50;;
17773;SDS011;9011;33.236;-97.118;2023-02-15T07:33:57;0.30;;;0.30;;
17773;SDS011;9011;33.236;-97.118;2023-02-15T07:36:26;0.63;;;0.38;;
17773;SDS011;9011;33.236;-97.118;2023-02-15T07:38:54;1.00;;;0.40;;
17773;SDS011;9011;33.236;-97.118;2023-02-15T07:41:24;1.25;;;0.50;;
17773;SDS011;9011;33.236;-97.118;2023-02-15T07:43:53;1.45;;;0.52;;
17773;SDS011;9011;33.236;-97.118;2023-02-15T07:46:21;0.47;;;0.28;;
17773;SDS011;9011;33.236;-97.118;2023-02-15T07:48:50;2.05;;;0.40;;
17773;SDS011;9011;33.236;-97.118;2023-02-15T07:51:18;0.85;;;0.50;;
17773;SDS011;9011;33.236;-97.118;2023-02-15T07:53:47;1.38;;;0.50;;
17773;SDS011;9011;33.236;-97.118;2023-02-15T07:56:17;2.40;;;0.55;;
17773;SDS011;9011;33.236;-97.118;2023-02-15T07:58:47;0.85;;;0.80;;
17773;SDS011;9011;33.236;-97.118;2023-02-15T08:01:18;1.58;;;0.55;;
17773;SDS011;9011;33.236;-97.118;2023-02-15T08:03:48;3.28;;;0.68;;
17773;SDS011;9011;33.236;-97.118;2023-02-15T08:06:17;1.40;;;0.55;;
17773;SDS011;9011;33.236;-97.118;2023-02-15T08:08:45;4.57;;;0.60;;
17773;SDS011;9011;33.236;-97.118;2023-02-15T08:11:15;2.60;;;0.70;;
17773;SDS011;9011;33.236;-97.118;2023-02-15T08:14:04;2.33;;;0.70;;
17773;SDS011;9011;33.236;-97.118;2023-02-15T08:16:34;2.42;;;0.70;;
17773;SDS011;9011;33.236;-97.118;2023-02-15T08:19:05;1.08;;;0.65;;
17773;SDS011;9011;33.236;-97.118;2023-02-15T08:21:35;1.35;;;0.40;;
17773;SDS011;9011;33.236;-97.118;2023-02-15T08:24:05;1.35;;;0.50;;
17773;SDS011;9011;33.236;-97.118;2023-02-15T08:26:35;1.10;;;0.60;;
17773;SDS011;9011;33.236;-97.118;2023-02-15T08:29:06;2.30;;;0.80;;
17773;SDS011;9011;33.236;-97.118;2023-02-15T08:31:35;1.45;;;0.55;;
17773;SDS011;9011;33.236;-97.118;2023-02-15T08:34:04;1.85;;;1.05;;
17773;SDS011;9011;33.236;-97.118;2023-02-15T08:36:33;3.85;;;0.70;;
17773;SDS011;9011;33.236;-97.118;2023-02-15T08:39:02;0.80;;;0.65;;
17773;SDS011;9011;33.236;-97.118;2023-02-15T08:41:32;1.40;;;0.70;;
17773;SDS011;9011;33.236;-97.118;2023-02-15T08:44:02;3.03;;;0.70;;
17773;SDS011;9011;33.236;-97.118;2023-02-15T08:46:34;0.85;;;0.60;;
17773;SDS011;9011;33.236;-97.118;2023-02-15T08:49:04;1.98;;;0.90;;
17773;SDS011;9011;33.236;-97.118;2023-02-15T08:51:33;3.28;;;0.77;;
17773;SDS011;9011;33.236;-97.118;2023-02-15T08:54:04;1.00;;;0.45;;
17773;SDS011;9011;33.236;-97.118;2023-02-15T08:56:35;0.60;;;0.50;;
17773;SDS011;9011;33.236;-97.118;2023-02-15T08:59:05;4.47;;;0.73;;
17773;SDS011;9011;33.236;-97.118;2023-02-15T09:01:39;3.45;;;0.60;;
17773;SDS011;9011;33.236;-97.118;2023-02-15T09:04:09;1.98;;;0.40;;
17773;SDS011;9011;33.236;-97.118;2023-02-15T09:06:39;1.15;;;0.57;;
17773;SDS011;9011;33.236;-97.118;2023-02-15T09:09:08;2.22;;;0.50;;
17773;SDS011;9011;33.236;-97.118;2023-02-15T09:11:38;2.22;;;0.90;;
17773;SDS011;9011;33.236;-97.118;2023-02-15T09:14:08;2.55;;;0.85;;
17773;SDS011;9011;33.236;-97.118;2023-02-15T09:16:41;1.08;;;0.52;;
17773;SDS011;9011;33.236;-97.118;2023-02-15T09:19:13;2.15;;;0.60;;
17773;SDS011;9011;33.236;-97.118;2023-02-15T09:21:42;1.33;;;0.50;;
17773;SDS011;9011;33.236;-97.118;2023-02-15T09:24:12;1.63;;;0.60;;
17773;SDS011;9011;33.236;-97.118;2023-02-15T09:26:42;2.60;;;0.63;;
17773;SDS011;9011;33.236;-97.118;2023-02-15T09:29:13;1.85;;;1.17;;
17773;SDS011;9011;33.236;-97.118;2023-02-15T09:31:46;1.67;;;0.60;;
17773;SDS011;9011;33.236;-97.118;2023-02-15T09:34:16;2.35;;;0.60;;
17773;SDS011;9011;33.236;-97.118;2023-02-15T09:36:45;0.88;;;0.50;;
17773;SDS011;9011;33.236;-97.118;2023-02-15T09:39:14;2.33;;;0.73;;
17773;SDS011;9011;33.236;-97.118;2023-02-15T09:41:54;1.48;;;0.68;;
17773;SDS011;9011;33.236;-97.118;2023-02-15T09:44:52;2.50;;;0.80;;
17773;SDS011;9011;33.236;-97.118;2023-02-15T09:47:45;2.72;;;1.10;;
17773;SDS011;9011;33.236;-97.118;2023-02-15T09:50:28;2.10;;;0.52;;
17773;SDS011;9011;33.236;-97.118;2023-02-15T09:55:59;2.60;;;0.77;;
17773;SDS011;9011;33.236;-97.118;2023-02-15T09:58:36;1.63;;;0.63;;
17773;SDS011;9011;33.236;-97.118;2023-02-15T10:01:15;1.60;;;1.00;;
17773;SDS011;9011;33.236;-97.118;2023-02-15T10:03:57;5.22;;;0.98;;
17773;SDS011;9011;33.236;-97.118;2023-02-15T10:06:36;1.07;;;0.70;;
17773;SDS011;9011;33.236;-97.118;2023-02-15T10:09:15;1.70;;;1.03;;
17773;SDS011;9011;33.236;-97.118;2023-02-15T10:12:06;3.43;;;1.00;;
17773;SDS011;9011;33.236;-97.118;2023-02-15T10:14:59;1.95;;;0.77;;
17773;SDS011;9011;33.236;-97.118;2023-02-15T10:17:44;1.53;;;0.83;;
17773;SDS011;9011;33.236;-97.118;2023-02-15T10:20:24;4.20;;;1.13;;
17773;SDS011;9011;33.236;-97.118;2023-02-15T10:23:12;1.50;;;0.77;;
17773;SDS011;9011;33.236;-97.118;2023-02-15T10:25:50;4.00;;;0.97;;
17773;SDS011;9011;33.236;-97.118;2023-02-15T10:28:23;4.17;;;1.20;;
17773;SDS011;9011;33.236;-97.118;2023-02-15T10:30:57;2.40;;;0.80;;
17773;SDS011;9011;33.236;-97.118;2023-02-15T10:33:37;1.50;;;1.10;;
17773;SDS011;9011;33.236;-97.118;2023-02-15T10:36:11;1.87;;;0.90;;
17773;SDS011;9011;33.236;-97.118;2023-02-15T10:38:53;1.93;;;0.80;;
17773;SDS011;9011;33.236;-97.118;2023-02-15T10:41:30;2.13;;;0.70;;
17773;SDS011;9011;33.236;-97.118;2023-02-15T10:44:22;1.00;;;0.50;;
17773;SDS011;9011;33.236;-97.118;2023-02-15T10:50:01;0.97;;;0.60;;
17773;SDS011;9011;33.236;-97.118;2023-02-15T10:52:45;0.70;;;0.50;;
17773;SDS011;9011;33.236;-97.118;2023-02-15T10:55:24;0.90;;;0.50;;
17773;SDS011;9011;33.236;-97.118;2023-02-15T10:58:03;1.20;;;0.77;;
17773;SDS011;9011;33.236;-97.118;2023-02-15T11:00:37;1.03;;;0.60;;
17773;SDS011;9011;33.236;-97.118;2023-02-15T11:03:14;0.83;;;0.57;;
17773;SDS011;9011;33.236;-97.118;2023-02-15T11:05:56;1.17;;;0.70;;
17773;SDS011;9011;33.236;-97.118;2023-02-15T11:08:32;1.10;;;0.60;;
17773;SDS011;9011;33.236;-97.118;2023-02-15T11:11:05;2.00;;;0.93;;
17773;SDS011;9011;33.236;-97.118;2023-02-15T11:13:38;2.80;;;0.90;;
17773;SDS011;9011;33.236;-97.118;2023-02-15T11:16:11;1.20;;;0.73;;
17773;SDS011;9011;33.236;-97.118;2023-02-15T11:18:43;2.13;;;0.60;;
17773;SDS011;9011;33.236;-97.118;2023-02-15T11:21:20;2.23;;;0.80;;
17773;SDS011;9011;33.236;-97.118;2023-02-15T11:23:52;1.13;;;0.80;;
17773;SDS011;9011;33.236;-97.118;2023-02-15T11:26:24;1.17;;;0.70;;
17773;SDS011;9011;33.236;-97.118;2023-02-15T11:28:58;1.50;;;0.70;;
17773;SDS011;9011;33.236;-97.118;2023-02-15T11:31:41;0.93;;;0.70;;
17773;SDS011;9011;33.236;-97.118;2023-02-15T11:34:13;1.97;;;0.70;;
17773;SDS011;9011;33.236;-97.118;2023-02-15T11:36:46;4.33;;;1.23;;
17773;SDS011;9011;33.236;-97.118;2023-02-15T11:39:19;2.87;;;0.83;;
17773;SDS011;9011;33.236;-97.118;2023-02-15T11:41:49;6.17;;;1.50;;
17773;SDS011;9011;33.236;-97.118;2023-02-15T11:44:21;2.00;;;0.90;;
17773;SDS011;9011;33.236;-97.118;2023-02-15T11:46:52;1.50;;;0.80;;
17773;SDS011;9011;33.236;-97.118;2023-02-15T11:49:21;2.20;;;1.27;;
17773;SDS011;9011;33.236;-97.118;2023-02-15T11:51:53;2.67;;;1.23;;
17773;SDS011;9011;33.236;-97.118;2023-02-15T11:54:25;2.00;;;1.20;;
17773;SDS011;9011;33.236;-97.118;2023-02-15T11:56:58;3.97;;;1.73;;
17773;SDS011;9011;33.236;-97.118;2023-02-15T11:59:34;2.83;;;1.60;;
17773;SDS011;9011;33.236;-97.118;2023-02-15T12:02:09;3.80;;;1.47;;
17773;SDS011;9011;33.236;-97.118;2023-02-15T12:04:43;5.17;;;1.50;;
17773;SDS011;9011;33.236;-97.118;2023-02-15T12:07:19;2.90;;;1.60;;
17773;SDS011;9011;33.236;-97.118;2023-02-15T12:09:54;4.33;;;1.50;;
17773;SDS011;9011;33.236;-97.118;2023-02-15T12:12:33;11.20;;;2.00;;
17773;SDS011;9011;33.236;-97.118;2023-02-15T12:15:03;4.80;;;1.80;;
17773;SDS011;9011;33.236;-97.118;2023-02-15T12:17:33;2.67;;;1.23;;
17773;SDS011;9011;33.236;-97.118;2023-02-15T12:20:06;2.30;;;1.10;;
17773;SDS011;9011;33.236;-97.118;2023-02-15T12:22:52;4.97;;;1.17;;
17773;SDS011;9011;33.236;-97.118;2023-02-15T12:25:32;2.63;;;1.27;;
17773;SDS011;9011;33.236;-97.118;2023-02-15T12:28:03;8.07;;;1.60;;
17773;SDS011;9011;33.236;-97.118;2023-02-15T12:30:50;2.70;;;1.37;;
17773;SDS011;9011;33.236;-97.118;2023-02-15T12:33:23;3.60;;;1.13;;
17773;SDS011;9011;33.236;-97.118;2023-02-15T12:35:56;3.53;;;1.03;;
17773;SDS011;9011;33.236;-97.118;2023-02-15T12:38:27;9.23;;;1.53;;
17773;SDS011;9011;33.236;-97.118;2023-02-15T12:40:59;5.47;;;1.43;;
17773;SDS011;9011;33.236;-97.118;2023-02-15T12:43:30;3.50;;;1.03;;
17773;SDS011;9011;33.236;-97.118;2023-02-15T12:48:51;6.03;;;1.60;;
17773;SDS011;9011;33.236;-97.118;2023-02-15T12:51:47;7.17;;;1.20;;
17773;SDS011;9011;33.236;-97.118;2023-02-15T12:54:21;3.83;;;1.60;;
17773;SDS011;9011;33.236;-97.118;2023-02-15T12:57:04;9.63;;;1.70;;
17773;SDS011;9011;33.236;-97.118;2023-02-15T12:59:49;7.23;;;1.37;;
17773;SDS011;9011;33.236;-97.118;2023-02-15T13:02:20;7.27;;;1.80;;
17773;SDS011;9011;33.236;-97.118;2023-02-15T13:04:52;4.30;;;1.10;;
17773;SDS011;9011;33.236;-97.118;2023-02-15T13:07:21;2.47;;;1.20;;
17773;SDS011;9011;33.236;-97.118;2023-02-15T13:09:51;4.23;;;1.67;;
17773;SDS011;9011;33.236;-97.118;2023-02-15T13:12:22;3.93;;;1.60;;
17773;SDS011;9011;33.236;-97.118;2023-02-15T13:14:53;2.57;;;1.50;;
17773;SDS011;9011;33.236;-97.118;2023-02-15T13:17:24;4.50;;;1.70;;
17773;SDS011;9011;33.236;-97.118;2023-02-15T13:19:57;4.20;;;1.40;;
17773;SDS011;9011;33.236;-97.118;2023-02-15T13:22:32;2.83;;;1.43;;
17773;SDS011;9011;33.236;-97.118;2023-02-15T13:25:10;11.23;;;2.10;;
17773;SDS011;9011;33.236;-97.118;2023-02-15T13:27:46;3.83;;;1.70;;
17773;SDS011;9011;33.236;-97.118;2023-02-15T13:30:25;5.37;;;1.73;;
17773;SDS011;9011;33.236;-97.118;2023-02-15T13:33:00;8.77;;;1.40;;
17773;SDS011;9011;33.236;-97.118;2023-02-15T13:35:35;8.50;;;1.70;;
17773;SDS011;9011;33.236;-97.118;2023-02-15T13:38:21;13.43;;;2.23;;
17773;SDS011;9011;33.236;-97.118;2023-02-15T13:41:00;9.87;;;1.47;;
17773;SDS011;9011;33.236;-97.118;2023-02-15T13:43:38;4.83;;;1.77;;
17773;SDS011;9011;33.236;-97.118;2023-02-15T13:46:22;12.60;;;1.83;;
17773;SDS011;9011;33.236;-97.118;2023-02-15T13:49:10;10.03;;;1.90;;
17773;SDS011;9011;33.236;-97.118;2023-02-15T13:51:48;8.10;;;1.77;;
17773;SDS011;9011;33.236;-97.118;2023-02-15T13:54:43;7.33;;;1.77;;
17773;SDS011;9011;33.236;-97.118;2023-02-15T13:57:27;5.73;;;1.37;;
17773;SDS011;9011;33.236;-97.118;2023-02-15T14:00:12;3.43;;;1.70;;
17773;SDS011;9011;33.236;-97.118;2023-02-15T14:06:00;6.17;;;1.53;;
17773;SDS011;9011;33.236;-97.118;2023-02-15T14:08:54;5.37;;;1.67;;
17773;SDS011;9011;33.236;-97.118;2023-02-15T14:11:33;5.40;;;1.37;;
17773;SDS011;9011;33.236;-97.118;2023-02-15T14:14:23;3.63;;;1.60;;
17773;SDS011;9011;33.236;-97.118;2023-02-15T14:17:10;3.23;;;1.47;;
17773;SDS011;9011;33.236;-97.118;2023-02-15T14:19:46;3.57;;;1.60;;
17773;SDS011;9011;33.236;-97.118;2023-02-15T14:22:19;4.03;;;1.50;;
17773;SDS011;9011;33.236;-97.118;2023-02-15T14:24:59;3.07;;;1.40;;
17773;SDS011;9011;33.236;-97.118;2023-02-15T14:27:44;4.20;;;1.13;;
17773;SDS011;9011;33.236;-97.118;2023-02-15T14:30:20;3.30;;;1.50;;
17773;SDS011;9011;33.236;-97.118;2023-02-15T14:32:54;2.50;;;1.30;;
17773;SDS011;9011;33.236;-97.118;2023-02-15T14:35:25;5.30;;;1.83;;
17773;SDS011;9011;33.236;-97.118;2023-02-15T14:37:58;3.97;;;1.20;;
17773;SDS011;9011;33.236;-97.118;2023-02-15T14:40:32;5.40;;;1.40;;
17773;SDS011;9011;33.236;-97.118;2023-02-15T14:43:26;2.23;;;1.07;;
17773;SDS011;9011;33.236;-97.118;2023-02-15T14:46:02;4.00;;;1.10;;
17773;SDS011;9011;33.236;-97.118;2023-02-15T14:48:41;1.97;;;1.17;;
17773;SDS011;9011;33.236;-97.118;2023-02-15T14:51:26;1.58;;;1.15;;
17773;SDS011;9011;33.236;-97.118;2023-02-15T14:57:23;3.07;;;1.10;;
17773;SDS011;9011;33.236;-97.118;2023-02-15T14:59:56;2.50;;;0.90;;
17773;SDS011;9011;33.236;-97.118;2023-02-15T15:02:27;3.20;;;1.13;;
17773;SDS011;9011;33.236;-97.118;2023-02-15T15:05:09;3.00;;;1.17;;
17773;SDS011;9011;33.236;-97.118;2023-02-15T15:07:42;4.97;;;1.33;;
17773;SDS011;9011;33.236;-97.118;2023-02-15T15:22:25;3.17;;;1.50;;
17773;SDS011;9011;33.236;-97.118;2023-02-15T15:24:55;3.92;;;1.27;;
17773;SDS011;9011;33.236;-97.118;2023-02-15T15:36:27;2.95;;;1.58;;
17773;SDS011;9011;33.236;-97.118;2023-02-15T15:39:25;4.32;;;1.40;;
17773;SDS011;9011;33.236;-97.118;2023-02-15T15:42:21;4.43;;;1.48;;
17773;SDS011;9011;33.236;-97.118;2023-02-15T15:45:03;3.42;;;1.67;;
17773;SDS011;9011;33.236;-97.118;2023-02-15T15:48:03;3.72;;;1.45;;
17773;SDS011;9011;33.236;-97.118;2023-02-15T15:50:53;2.63;;;1.90;;
17773;SDS011;9011;33.236;-97.118;2023-02-15T15:53:26;2.58;;;1.60;;
17773;SDS011;9011;33.236;-97.118;2023-02-15T15:55:59;4.65;;;2.17;;
17773;SDS011;9011;33.236;-97.118;2023-02-15T15:58:31;3.38;;;1.88;;